createdAt,value
2019-02-24T00:00:28.847Z,5.61
2019-02-24T00:01:28.837Z,5.57
2019-02-24T00:02:28.833Z,5.53
2019-02-24T00:03:28.838Z,5.63
2019-02-24T00:04:28.843Z,5.58
2019-02-24T00:05:28.805Z,5.53
2019-02-24T00:06:28.804Z,5.57
2019-02-24T00:07:28.777Z,5.60
2019-02-24T00:08:28.775Z,5.57
2019-02-24T00:09:28.806Z,5.58
2019-02-24T00:10:28.751Z,5.60
2019-02-24T00:11:28.760Z,5.53
2019-02-24T00:12:28.712Z,5.61
2019-02-24T00:13:28.709Z,5.53
2019-02-24T00:14:28.706Z,5.45
2019-02-24T00:15:28.700Z,5.49
2019-02-24T00:16:28.670Z,5.49
2019-02-24T00:17:28.660Z,5.48
2019-02-24T00:18:28.694Z,5.48
2019-02-24T00:19:28.648Z,5.49
2019-02-24T00:20:28.622Z,5.49
2019-02-24T00:21:28.643Z,5.54
2019-02-24T00:22:28.617Z,5.43
2019-02-24T00:23:28.588Z,5.45
2019-02-24T00:24:28.590Z,5.45
2019-02-24T00:25:28.568Z,5.40
2019-02-24T00:26:28.569Z,5.46
2019-02-24T00:27:28.549Z,5.40
2019-02-24T00:28:28.540Z,5.45
2019-02-24T00:29:28.536Z,5.39
2019-02-24T00:30:28.514Z,5.39
2019-02-24T00:31:28.500Z,5.42
2019-02-24T00:32:28.505Z,5.40
2019-02-24T00:33:28.481Z,5.38
2019-02-24T00:34:28.481Z,5.38
2019-02-24T00:35:28.465Z,5.40
2019-02-24T00:36:28.457Z,5.35
2019-02-24T00:37:28.444Z,5.28
2019-02-24T00:38:28.446Z,5.25
2019-02-24T00:39:28.454Z,5.21
2019-02-24T00:40:28.406Z,5.18
2019-02-24T00:41:28.390Z,5.17
2019-02-24T00:42:28.394Z,5.15
2019-02-24T00:43:28.387Z,5.12
2019-02-24T00:44:28.382Z,5.12
2019-02-24T00:45:28.343Z,5.07
2019-02-24T00:46:28.338Z,5.09
2019-02-24T00:47:28.353Z,5.12
2019-02-24T00:48:28.317Z,5.06
2019-02-24T00:49:28.309Z,5.12
2019-02-24T00:50:28.327Z,5.06
2019-02-24T00:51:28.277Z,5.09
2019-02-24T00:52:28.266Z,5.17
2019-02-24T00:53:28.260Z,5.12
2019-02-24T00:54:28.284Z,5.03
2019-02-24T00:55:28.267Z,4.99
2019-02-24T00:56:28.219Z,5.07
2019-02-24T00:57:28.224Z,5.03
2019-02-24T00:58:28.215Z,5.02
2019-02-24T00:59:28.186Z,5.03
2019-02-24T01:00:28.189Z,5.04
2019-02-24T01:01:28.164Z,5.03
2019-02-24T01:02:28.159Z,5.00
2019-02-24T01:03:28.140Z,4.94
2019-02-24T01:04:28.140Z,4.92
2019-02-24T01:05:28.168Z,4.85
2019-02-24T01:06:28.112Z,4.97
2019-02-24T01:07:28.107Z,4.99
2019-02-24T01:08:28.084Z,4.89
2019-02-24T01:09:28.073Z,4.88
2019-02-24T01:10:28.085Z,4.89
2019-02-24T01:11:28.073Z,4.85
2019-02-24T01:12:28.114Z,4.84
2019-02-24T01:13:28.027Z,4.92
2019-02-24T01:14:28.092Z,4.77
2019-02-24T01:15:28.042Z,4.85
2019-02-24T01:16:28.030Z,4.82
2019-02-24T01:17:28.004Z,4.84
2019-02-24T01:18:28.016Z,4.86
2019-02-24T01:19:27.970Z,4.91
2019-02-24T01:20:27.962Z,4.86
2019-02-24T01:21:27.955Z,4.91
2019-02-24T01:22:27.931Z,4.92
2019-02-24T01:23:27.924Z,4.86
2019-02-24T01:24:27.926Z,4.89
2019-02-24T01:25:27.895Z,4.85
2019-02-24T01:26:27.901Z,4.89
2019-02-24T01:27:27.872Z,4.94
2019-02-24T01:28:27.888Z,5.02
2019-02-24T01:29:27.877Z,4.92
2019-02-24T01:30:27.888Z,4.94
2019-02-24T01:31:27.873Z,4.88
2019-02-24T01:32:27.815Z,4.91
2019-02-24T01:33:27.813Z,4.97
2019-02-24T01:34:27.819Z,4.88
2019-02-24T01:35:27.821Z,4.85
2019-02-24T01:36:27.799Z,4.91
2019-02-24T01:37:27.822Z,4.88
2019-02-24T01:38:27.769Z,4.88
2019-02-24T01:39:27.740Z,4.80
2019-02-24T01:40:27.734Z,4.91
2019-02-24T01:41:27.744Z,4.77
2019-02-24T01:42:27.753Z,4.92
2019-02-24T01:43:27.715Z,4.78
2019-02-24T01:44:27.700Z,4.80
2019-02-24T01:45:27.717Z,4.80
2019-02-24T01:46:27.696Z,4.92
2019-02-24T01:47:27.663Z,4.92
2019-02-24T01:48:27.642Z,4.99
2019-02-24T01:49:27.655Z,4.86
2019-02-24T01:50:27.628Z,4.89
2019-02-24T01:51:27.623Z,4.84
2019-02-24T01:52:27.592Z,4.88
2019-02-24T01:53:27.612Z,4.89
2019-02-24T01:54:27.580Z,4.89
2019-02-24T01:55:27.571Z,4.92
2019-02-24T01:56:27.610Z,4.92
2019-02-24T01:57:27.542Z,4.84
2019-02-24T01:58:34.955Z,4.88
2019-02-24T01:59:28.525Z,4.91
2019-02-24T02:00:27.542Z,4.88
2019-02-24T02:01:27.510Z,4.94
2019-02-24T02:02:27.503Z,4.92
2019-02-24T02:03:27.470Z,4.80
2019-02-24T02:04:27.467Z,4.78
2019-02-24T02:05:27.494Z,4.78
2019-02-24T02:06:27.458Z,4.80
2019-02-24T02:07:27.439Z,4.80
2019-02-24T02:08:27.432Z,4.69
2019-02-24T02:09:27.404Z,4.77
2019-02-24T02:10:27.413Z,4.75
2019-02-24T02:11:27.390Z,4.73
2019-02-24T02:12:27.400Z,4.73
2019-02-24T02:13:27.379Z,4.73
2019-02-24T02:14:27.351Z,4.73
2019-02-24T02:15:27.333Z,4.67
2019-02-24T02:16:27.323Z,4.72
2019-02-24T02:17:27.338Z,4.60
2019-02-24T02:18:27.299Z,4.82
2019-02-24T02:19:27.301Z,4.63
2019-02-24T02:20:27.280Z,4.75
2019-02-24T02:21:27.276Z,4.73
2019-02-24T02:22:27.284Z,4.60
2019-02-24T02:23:27.257Z,4.72
2019-02-24T02:24:27.254Z,4.86
2019-02-24T02:25:27.260Z,4.69
2019-02-24T02:26:27.240Z,4.66
2019-02-24T02:27:27.212Z,4.69
2019-02-24T02:28:27.188Z,4.69
2019-02-24T02:29:27.183Z,4.67
2019-02-24T02:30:27.190Z,4.69
2019-02-24T02:31:27.179Z,4.59
2019-02-24T02:32:27.203Z,4.65
2019-02-24T02:33:27.140Z,4.54
2019-02-24T02:34:27.125Z,4.50
2019-02-24T02:35:27.126Z,4.58
2019-02-24T02:36:27.113Z,4.50
2019-02-24T02:37:27.120Z,4.48
2019-02-24T02:38:27.076Z,4.50
2019-02-24T02:39:27.065Z,4.42
2019-02-24T02:40:27.061Z,4.36
2019-02-24T02:41:27.064Z,4.34
2019-02-24T02:42:27.062Z,4.27
2019-02-24T02:43:27.018Z,4.29
2019-02-24T02:44:27.010Z,4.20
2019-02-24T02:45:27.014Z,4.16
2019-02-24T02:46:27.038Z,4.12
2019-02-24T02:47:26.992Z,4.14
2019-02-24T02:48:26.966Z,4.14
2019-02-24T02:49:26.960Z,4.11
2019-02-24T02:50:26.949Z,4.06
2019-02-24T02:51:26.950Z,4.09
2019-02-24T02:52:26.960Z,4.12
2019-02-24T02:53:26.907Z,4.09
2019-02-24T02:54:26.898Z,4.06
2019-02-24T02:55:26.899Z,4.12
2019-02-24T02:56:26.877Z,4.20
2019-02-24T02:57:26.864Z,4.14
2019-02-24T02:58:26.874Z,4.20
2019-02-24T02:59:26.878Z,4.11
2019-02-24T03:00:26.827Z,4.16
2019-02-24T03:01:26.830Z,4.15
2019-02-24T03:02:26.810Z,4.18
2019-02-24T03:03:26.833Z,4.09
2019-02-24T03:04:26.809Z,4.06
2019-02-24T03:05:26.778Z,3.97
2019-02-24T03:06:26.766Z,3.97
2019-02-24T03:07:26.775Z,3.87
2019-02-24T03:08:26.753Z,3.78
2019-02-24T03:09:26.727Z,3.87
2019-02-24T03:10:26.717Z,3.75
2019-02-24T03:11:26.717Z,3.79
2019-02-24T03:12:26.692Z,3.80
2019-02-24T03:13:26.707Z,3.79
2019-02-24T03:14:26.680Z,3.72
2019-02-24T03:15:26.670Z,3.80
2019-02-24T03:16:26.650Z,3.69
2019-02-24T03:17:26.634Z,3.72
2019-02-24T03:18:26.657Z,3.80
2019-02-24T03:19:26.622Z,3.78
2019-02-24T03:20:26.622Z,3.80
2019-02-24T03:21:26.609Z,3.78
2019-02-24T03:22:26.595Z,3.78
2019-02-24T03:23:26.569Z,3.73
2019-02-24T03:24:26.590Z,3.78
2019-02-24T03:25:26.565Z,3.76
2019-02-24T03:26:26.571Z,3.73
2019-02-24T03:27:26.527Z,3.78
2019-02-24T03:28:26.550Z,3.76
2019-02-24T03:29:26.529Z,3.76
2019-02-24T03:30:26.490Z,3.68
2019-02-24T03:31:26.495Z,3.72
2019-02-24T03:32:26.508Z,3.73
2019-02-24T03:33:26.458Z,3.75
2019-02-24T03:34:26.520Z,3.79
2019-02-24T03:35:26.434Z,3.79
2019-02-24T03:36:26.424Z,3.65
2019-02-24T03:37:26.417Z,3.68
2019-02-24T03:38:26.439Z,3.75
2019-02-24T03:39:26.428Z,3.69
2019-02-24T03:40:26.378Z,3.72
2019-02-24T03:41:26.382Z,3.66
2019-02-24T03:42:26.369Z,3.62
2019-02-24T03:43:26.352Z,3.65
2019-02-24T03:44:26.421Z,3.66
2019-02-24T03:45:26.323Z,3.66
2019-02-24T03:46:26.309Z,3.66
2019-02-24T03:47:26.304Z,3.68
2019-02-24T03:48:26.290Z,3.65
2019-02-24T03:49:26.309Z,3.66
2019-02-24T03:50:26.265Z,3.57
2019-02-24T03:51:26.260Z,3.62
2019-02-24T03:52:26.272Z,3.60
2019-02-24T03:53:26.234Z,3.58
2019-02-24T03:54:26.346Z,3.54
2019-02-24T03:55:26.234Z,3.39
2019-02-24T03:56:26.194Z,3.28
2019-02-24T03:57:26.189Z,3.23
2019-02-24T03:58:26.178Z,3.23
2019-02-24T03:59:26.164Z,3.14
2019-02-24T04:00:26.161Z,3.18
2019-02-24T04:01:26.138Z,3.08
2019-02-24T04:02:26.130Z,3.03
2019-02-24T04:03:26.131Z,2.97
2019-02-24T04:04:26.111Z,2.92
2019-02-24T04:05:26.102Z,2.87
2019-02-24T04:06:26.116Z,2.93
2019-02-24T04:07:26.083Z,2.87
2019-02-24T04:08:26.064Z,3.00
2019-02-24T04:09:26.049Z,2.99
2019-02-24T04:10:26.064Z,3.03
2019-02-24T04:11:26.038Z,3.05
2019-02-24T04:12:26.026Z,3.11
2019-02-24T04:13:26.003Z,3.08
2019-02-24T04:14:26.011Z,3.15
2019-02-24T04:15:25.982Z,3.05
2019-02-24T04:16:25.990Z,3.06
2019-02-24T04:17:25.982Z,3.08
2019-02-24T04:18:25.948Z,3.08
2019-02-24T04:19:25.936Z,3.15
2019-02-24T04:20:25.928Z,3.05
2019-02-24T04:21:25.925Z,3.06
2019-02-24T04:22:25.925Z,2.99
2019-02-24T04:23:25.890Z,2.95
2019-02-24T04:24:25.876Z,3.08
2019-02-24T04:25:25.868Z,3.02
2019-02-24T04:26:25.864Z,3.10
2019-02-24T04:27:25.846Z,3.06
2019-02-24T04:28:25.847Z,3.06
2019-02-24T04:29:25.827Z,3.10
2019-02-24T04:30:25.810Z,3.10
2019-02-24T04:31:25.809Z,3.23
2019-02-24T04:32:25.789Z,3.18
2019-02-24T04:33:25.782Z,3.11
2019-02-24T04:34:25.785Z,3.18
2019-02-24T04:35:25.753Z,3.08
2019-02-24T04:36:25.754Z,3.15
2019-02-24T04:37:25.737Z,3.14
2019-02-24T04:38:25.722Z,3.10
2019-02-24T04:39:25.736Z,3.15
2019-02-24T04:40:25.730Z,3.24
2019-02-24T04:41:25.706Z,3.14
2019-02-24T04:42:25.716Z,3.18
2019-02-24T04:43:25.670Z,3.11
2019-02-24T04:44:25.684Z,3.21
2019-02-24T04:45:25.658Z,3.13
2019-02-24T04:46:25.730Z,3.05
2019-02-24T04:47:25.634Z,3.13
2019-02-24T04:48:25.613Z,3.06
2019-02-24T04:49:25.609Z,3.15
2019-02-24T04:50:25.596Z,3.10
2019-02-24T04:51:25.585Z,3.20
2019-02-24T04:52:25.569Z,3.14
2019-02-24T04:53:25.560Z,3.05
2019-02-24T04:54:25.545Z,3.11
2019-02-24T04:55:25.555Z,3.06
2019-02-24T04:56:25.559Z,3.06
2019-02-24T04:57:25.540Z,3.05
2019-02-24T04:58:25.519Z,3.08
2019-02-24T04:59:34.540Z,3.06
2019-02-24T05:00:26.578Z,3.10
2019-02-24T05:01:25.468Z,3.05
2019-02-24T05:02:25.478Z,3.03
2019-02-24T05:03:25.448Z,3.06
2019-02-24T05:04:25.442Z,3.08
2019-02-24T05:05:25.417Z,3.03
2019-02-24T05:06:25.408Z,3.00
2019-02-24T05:07:25.406Z,3.00
2019-02-24T05:08:25.405Z,3.02
2019-02-24T05:09:25.395Z,3.08
2019-02-24T05:10:25.375Z,2.95
2019-02-24T05:11:25.376Z,3.03
2019-02-24T05:12:25.368Z,2.99
2019-02-24T05:13:25.366Z,3.02
2019-02-24T05:14:25.315Z,2.95
2019-02-24T05:15:25.384Z,2.99
2019-02-24T05:16:25.297Z,3.03
2019-02-24T05:17:25.323Z,2.99
2019-02-24T05:18:25.291Z,3.06
2019-02-24T05:19:25.264Z,3.02
2019-02-24T05:20:25.254Z,3.06
2019-02-24T05:21:25.237Z,2.97
2019-02-24T05:22:25.259Z,3.02
2019-02-24T05:23:25.214Z,2.95
2019-02-24T05:24:25.228Z,2.97
2019-02-24T05:25:25.207Z,2.97
2019-02-24T05:26:25.257Z,2.97
2019-02-24T05:27:25.179Z,2.92
2019-02-24T05:28:25.170Z,2.97
2019-02-24T05:29:25.204Z,2.96
2019-02-24T05:30:25.149Z,2.97
2019-02-24T05:31:25.143Z,3.02
2019-02-24T05:32:25.115Z,2.97
2019-02-24T05:33:25.121Z,2.97
2019-02-24T05:34:25.122Z,3.00
2019-02-24T05:35:25.114Z,3.08
2019-02-24T05:36:25.072Z,3.05
2019-02-24T05:37:25.077Z,3.10
2019-02-24T05:38:25.083Z,3.06
2019-02-24T05:39:25.041Z,3.03
2019-02-24T05:40:25.025Z,2.96
2019-02-24T05:41:25.024Z,3.00
2019-02-24T05:42:25.008Z,3.00
2019-02-24T05:43:25.012Z,3.02
2019-02-24T05:44:24.992Z,2.90
2019-02-24T05:45:24.974Z,2.90
2019-02-24T05:46:24.965Z,2.90
2019-02-24T05:47:24.967Z,2.95
2019-02-24T05:48:24.950Z,2.92
2019-02-24T05:49:24.930Z,2.89
2019-02-24T05:50:24.920Z,2.90
2019-02-24T05:51:24.909Z,2.92
2019-02-24T05:52:24.898Z,2.92
2019-02-24T05:53:24.905Z,2.99
2019-02-24T05:54:24.912Z,2.97
2019-02-24T05:55:24.870Z,2.95
2019-02-24T05:56:24.870Z,2.90
2019-02-24T05:57:24.841Z,2.87
2019-02-24T05:58:24.843Z,2.95
2019-02-24T05:59:24.827Z,2.87
2019-02-24T06:00:24.813Z,2.93
2019-02-24T06:01:24.800Z,2.96
2019-02-24T06:02:24.809Z,2.95
2019-02-24T06:03:24.785Z,3.03
2019-02-24T06:04:24.783Z,2.85
2019-02-24T06:05:24.752Z,2.81
2019-02-24T06:06:24.744Z,2.74
2019-02-24T06:07:24.784Z,2.75
2019-02-24T06:08:24.886Z,2.60
2019-02-24T06:09:24.717Z,2.60
2019-02-24T06:10:24.730Z,2.54
2019-02-24T06:11:24.684Z,2.56
2019-02-24T06:12:24.690Z,2.52
2019-02-24T06:13:24.668Z,2.63
2019-02-24T06:14:24.672Z,2.59
2019-02-24T06:15:24.660Z,2.57
2019-02-24T06:16:24.658Z,2.63
2019-02-24T06:17:24.620Z,2.56
2019-02-24T06:18:24.608Z,2.64
2019-02-24T06:19:24.611Z,2.77
2019-02-24T06:20:24.591Z,2.72
2019-02-24T06:21:24.585Z,2.75
2019-02-24T06:22:24.570Z,2.74
2019-02-24T06:23:24.561Z,2.67
2019-02-24T06:24:24.571Z,2.74
2019-02-24T06:25:24.561Z,2.74
2019-02-24T06:26:24.536Z,2.72
2019-02-24T06:27:24.534Z,2.77
2019-02-24T06:28:24.522Z,2.74
2019-02-24T06:29:24.519Z,2.79
2019-02-24T06:30:24.482Z,2.75
2019-02-24T06:31:24.476Z,2.77
2019-02-24T06:32:24.464Z,2.72
2019-02-24T06:33:24.448Z,2.72
2019-02-24T06:34:24.431Z,2.63
2019-02-24T06:35:24.436Z,2.77
2019-02-24T06:36:24.413Z,2.77
2019-02-24T06:37:24.397Z,2.74
2019-02-24T06:38:24.401Z,2.77
2019-02-24T06:39:24.379Z,2.71
2019-02-24T06:40:24.381Z,2.81
2019-02-24T06:41:24.383Z,2.84
2019-02-24T06:42:24.348Z,2.84
2019-02-24T06:43:24.346Z,2.84
2019-02-24T06:44:24.339Z,2.92
2019-02-24T06:45:24.321Z,2.92
2019-02-24T06:46:24.305Z,2.87
2019-02-24T06:47:24.286Z,2.79
2019-02-24T06:48:24.281Z,2.82
2019-02-24T06:49:24.274Z,2.79
2019-02-24T06:50:24.269Z,2.84
2019-02-24T06:51:24.261Z,2.77
2019-02-24T06:52:24.235Z,2.84
2019-02-24T06:53:24.221Z,2.75
2019-02-24T06:54:24.215Z,2.72
2019-02-24T06:55:24.224Z,2.72
2019-02-24T06:56:24.185Z,2.74
2019-02-24T06:57:24.189Z,2.75
2019-02-24T06:58:24.168Z,2.72
2019-02-24T06:59:24.155Z,2.59
2019-02-24T07:00:24.159Z,2.63
2019-02-24T07:01:24.136Z,2.75
2019-02-24T07:02:24.127Z,2.77
2019-02-24T07:03:24.108Z,2.67
2019-02-24T07:04:24.108Z,2.74
2019-02-24T07:05:24.099Z,2.74
2019-02-24T07:06:24.088Z,2.74
2019-02-24T07:07:24.062Z,2.60
2019-02-24T07:08:24.055Z,2.52
2019-02-24T07:09:24.050Z,2.56
2019-02-24T07:10:24.077Z,2.63
2019-02-24T07:11:24.070Z,2.77
2019-02-24T07:12:24.008Z,2.79
2019-02-24T07:13:23.997Z,2.77
2019-02-24T07:14:23.992Z,2.74
2019-02-24T07:15:23.974Z,2.84
2019-02-24T07:16:24.017Z,2.81
2019-02-24T07:17:23.968Z,2.84
2019-02-24T07:18:23.966Z,2.87
2019-02-24T07:19:23.933Z,2.84
2019-02-24T07:20:23.928Z,2.89
2019-02-24T07:21:23.932Z,2.99
2019-02-24T07:22:23.902Z,3.08
2019-02-24T07:23:23.921Z,3.06
2019-02-24T07:24:23.876Z,3.10
2019-02-24T07:25:23.869Z,3.13
2019-02-24T07:26:23.873Z,3.17
2019-02-24T07:27:23.845Z,3.15
2019-02-24T07:28:23.830Z,3.17
2019-02-24T07:29:23.844Z,3.18
2019-02-24T07:30:23.966Z,3.28
2019-02-24T07:31:23.813Z,3.39
2019-02-24T07:32:23.803Z,3.43
2019-02-24T07:33:23.785Z,3.43
2019-02-24T07:34:23.768Z,3.51
2019-02-24T07:35:23.750Z,3.60
2019-02-24T07:36:23.740Z,3.65
2019-02-24T07:37:23.740Z,3.69
2019-02-24T07:38:23.718Z,3.68
2019-02-24T07:39:23.752Z,3.70
2019-02-24T07:40:23.701Z,3.79
2019-02-24T07:41:23.682Z,3.76
2019-02-24T07:42:23.691Z,3.58
2019-02-24T07:43:23.673Z,3.62
2019-02-24T07:44:23.656Z,3.69
2019-02-24T07:45:23.665Z,3.62
2019-02-24T07:46:23.643Z,3.66
2019-02-24T07:47:23.625Z,3.68
2019-02-24T07:48:23.605Z,3.86
2019-02-24T07:49:23.597Z,3.79
2019-02-24T07:50:23.596Z,3.62
2019-02-24T07:51:23.570Z,3.54
2019-02-24T07:52:23.586Z,3.54
2019-02-24T07:53:23.546Z,3.55
2019-02-24T07:54:23.537Z,3.55
2019-02-24T07:55:23.530Z,3.57
2019-02-24T07:56:23.536Z,3.51
2019-02-24T07:57:23.501Z,3.61
2019-02-24T07:58:23.501Z,3.68
2019-02-24T07:59:23.482Z,3.72
2019-02-24T08:00:31.709Z,3.78
2019-02-24T08:01:24.476Z,3.65
2019-02-24T08:02:23.491Z,3.65
2019-02-24T08:03:23.448Z,3.65
2019-02-24T08:04:23.423Z,3.68
2019-02-24T08:05:23.414Z,3.62
2019-02-24T08:06:23.416Z,3.65
2019-02-24T08:07:23.393Z,3.76
2019-02-24T08:08:23.399Z,3.83
2019-02-24T08:09:23.365Z,3.90
2019-02-24T08:10:23.354Z,3.86
2019-02-24T08:11:23.347Z,3.94
2019-02-24T08:12:23.333Z,4.11
2019-02-24T08:13:23.348Z,4.08
2019-02-24T08:14:23.314Z,4.18
2019-02-24T08:15:23.298Z,4.27
2019-02-24T08:16:23.285Z,4.26
2019-02-24T08:17:23.279Z,4.24
2019-02-24T08:18:23.287Z,4.44
2019-02-24T08:19:23.255Z,4.37
2019-02-24T08:20:23.240Z,4.42
2019-02-24T08:21:23.231Z,4.41
2019-02-24T08:22:23.225Z,4.37
2019-02-24T08:23:23.224Z,4.41
2019-02-24T08:24:23.203Z,4.41
2019-02-24T08:25:23.183Z,4.36
2019-02-24T08:26:23.176Z,4.41
2019-02-24T08:27:23.165Z,4.51
2019-02-24T08:28:23.170Z,4.48
2019-02-24T08:29:23.158Z,4.62
2019-02-24T08:30:23.157Z,4.65
2019-02-24T08:31:23.126Z,4.59
2019-02-24T08:32:23.107Z,4.78
2019-02-24T08:33:23.101Z,4.82
2019-02-24T08:34:23.099Z,4.78
2019-02-24T08:35:23.092Z,4.92
2019-02-24T08:36:23.087Z,4.97
2019-02-24T08:37:23.051Z,5.00
2019-02-24T08:38:23.042Z,5.02
2019-02-24T08:39:23.037Z,5.09
2019-02-24T08:40:23.020Z,5.12
2019-02-24T08:41:23.013Z,5.15
2019-02-24T08:42:23.035Z,5.18
2019-02-24T08:43:23.082Z,5.30
2019-02-24T08:44:22.986Z,5.31
2019-02-24T08:45:22.961Z,5.51
2019-02-24T08:46:22.966Z,5.85
2019-02-24T08:47:22.953Z,6.12
2019-02-24T08:48:22.955Z,6.84
2019-02-24T08:49:22.927Z,7.42
2019-02-24T08:50:22.914Z,8.16
2019-02-24T08:51:23.446Z,8.62
2019-02-24T08:52:22.890Z,8.94
2019-02-24T08:53:22.883Z,9.23
2019-02-24T08:54:22.891Z,9.65
2019-02-24T08:55:22.849Z,10.01
2019-02-24T08:56:22.848Z,10.22
2019-02-24T08:57:22.827Z,10.48
2019-02-24T08:58:22.829Z,10.63
2019-02-24T08:59:22.812Z,10.45
2019-02-24T09:00:22.826Z,10.23
2019-02-24T09:01:22.786Z,10.22
2019-02-24T09:02:22.772Z,10.07
2019-02-24T09:03:22.765Z,9.71
2019-02-24T09:04:22.753Z,9.74
2019-02-24T09:05:22.751Z,9.81
2019-02-24T09:06:22.726Z,10.36
2019-02-24T09:07:22.728Z,10.92
2019-02-24T09:08:22.708Z,11.62
2019-02-24T09:09:22.701Z,11.85
2019-02-24T09:10:22.706Z,12.17
2019-02-24T09:11:22.671Z,12.34
2019-02-24T09:12:22.660Z,12.64
2019-02-24T09:13:22.663Z,12.93
2019-02-24T09:14:22.646Z,13.17
2019-02-24T09:15:22.640Z,12.85
2019-02-24T09:16:22.627Z,12.41
2019-02-24T09:17:22.601Z,12.02
2019-02-24T09:18:22.605Z,11.98
2019-02-24T09:19:22.579Z,11.57
2019-02-24T09:20:22.594Z,10.56
2019-02-24T09:21:22.573Z,10.15
2019-02-24T09:22:22.559Z,10.07
2019-02-24T09:23:22.539Z,9.89
2019-02-24T09:24:22.523Z,9.81
2019-02-24T09:25:22.524Z,9.64
2019-02-24T09:26:22.502Z,9.65
2019-02-24T09:27:22.491Z,9.99
2019-02-24T09:28:22.499Z,10.27
2019-02-24T09:29:22.516Z,10.68
2019-02-24T09:30:22.462Z,10.67
2019-02-24T09:31:22.475Z,10.36
2019-02-24T09:32:22.432Z,10.14
2019-02-24T09:33:22.430Z,10.23
2019-02-24T09:34:22.414Z,10.38
2019-02-24T09:35:22.412Z,11.02
2019-02-24T09:36:22.389Z,11.57
2019-02-24T09:37:22.377Z,11.96
2019-02-24T09:38:22.371Z,12.07
2019-02-24T09:39:22.359Z,12.42
2019-02-24T09:40:22.343Z,12.90
2019-02-24T09:41:22.348Z,13.20
2019-02-24T09:42:22.318Z,13.54
2019-02-24T09:43:22.309Z,13.81
2019-02-24T09:44:22.303Z,13.52
2019-02-24T09:45:22.297Z,13.28
2019-02-24T09:46:22.301Z,12.79
2019-02-24T09:47:22.272Z,12.78
2019-02-24T09:48:22.249Z,12.85
2019-02-24T09:49:22.241Z,13.11
2019-02-24T09:50:22.246Z,13.39
2019-02-24T09:51:22.230Z,13.66
2019-02-24T09:52:22.239Z,13.92
2019-02-24T09:53:22.196Z,13.99
2019-02-24T09:54:22.187Z,13.66
2019-02-24T09:55:22.179Z,13.55
2019-02-24T09:56:22.172Z,13.42
2019-02-24T09:57:22.154Z,13.29
2019-02-24T09:58:22.147Z,13.19
2019-02-24T09:59:22.125Z,13.45
2019-02-24T10:00:22.213Z,13.81
2019-02-24T10:01:22.151Z,13.62
2019-02-24T10:02:22.097Z,13.73
2019-02-24T10:03:22.102Z,13.99
2019-02-24T10:04:22.073Z,13.88
2019-02-24T10:05:22.059Z,13.95
2019-02-24T10:06:22.048Z,13.97
2019-02-24T10:07:22.069Z,13.71
2019-02-24T10:08:22.033Z,13.70
2019-02-24T10:09:22.013Z,13.52
2019-02-24T10:10:22.006Z,13.07
2019-02-24T10:11:21.996Z,12.77
2019-02-24T10:12:21.988Z,12.57
2019-02-24T10:13:21.969Z,12.79
2019-02-24T10:14:21.960Z,12.85
2019-02-24T10:15:21.995Z,12.83
2019-02-24T10:16:21.940Z,12.53
2019-02-24T10:17:21.946Z,12.42
2019-02-24T10:18:21.944Z,12.53
2019-02-24T10:19:21.908Z,12.90
2019-02-24T10:20:21.894Z,13.20
2019-02-24T10:21:21.883Z,13.39
2019-02-24T10:22:21.882Z,13.36
2019-02-24T10:23:21.862Z,13.51
2019-02-24T10:24:21.850Z,13.57
2019-02-24T10:25:21.855Z,13.57
2019-02-24T10:26:21.840Z,13.51
2019-02-24T10:27:21.828Z,13.55
2019-02-24T10:28:21.817Z,13.69
2019-02-24T10:29:21.789Z,13.82
2019-02-24T10:30:21.780Z,13.64
2019-02-24T10:31:21.781Z,13.39
2019-02-24T10:32:21.766Z,13.19
2019-02-24T10:33:21.746Z,13.01
2019-02-24T10:34:21.740Z,12.65
2019-02-24T10:35:21.728Z,12.52
2019-02-24T10:36:21.715Z,12.31
2019-02-24T10:37:21.758Z,12.01
2019-02-24T10:38:21.693Z,12.10
2019-02-24T10:39:29.528Z,12.50
2019-02-24T10:40:22.673Z,12.79
2019-02-24T10:41:21.664Z,12.59
2019-02-24T10:42:21.662Z,12.79
2019-02-24T10:43:21.637Z,12.74
2019-02-24T10:44:21.646Z,13.38
2019-02-24T10:45:21.610Z,13.71
2019-02-24T10:46:21.598Z,14.02
2019-02-24T10:47:21.599Z,14.27
2019-02-24T10:48:21.577Z,14.68
2019-02-24T10:49:21.560Z,15.25
2019-02-24T10:50:21.553Z,15.23
2019-02-24T10:51:21.538Z,15.20
2019-02-24T10:52:21.527Z,15.36
2019-02-24T10:53:21.528Z,15.25
2019-02-24T10:54:21.508Z,15.44
2019-02-24T10:55:21.493Z,15.64
2019-02-24T10:56:21.483Z,15.62
2019-02-24T10:57:21.473Z,15.86
2019-02-24T10:58:21.468Z,15.96
2019-02-24T10:59:22.313Z,15.94
2019-02-24T11:00:21.443Z,15.89
2019-02-24T11:01:29.355Z,16.20
2019-02-24T11:02:22.412Z,16.31
2019-02-24T11:03:21.420Z,16.33
2019-02-24T11:04:21.399Z,16.02
2019-02-24T11:05:21.432Z,16.00
2019-02-24T11:06:21.377Z,15.76
2019-02-24T11:07:21.367Z,15.44
2019-02-24T11:08:21.372Z,15.06
2019-02-24T11:09:21.336Z,14.69
2019-02-24T11:10:21.329Z,14.69
2019-02-24T11:11:21.317Z,14.52
2019-02-24T11:12:21.374Z,14.65
2019-02-24T11:13:21.302Z,14.75
2019-02-24T11:14:21.282Z,14.75
2019-02-24T11:15:21.274Z,14.83
2019-02-24T11:16:21.284Z,14.57
2019-02-24T11:17:21.262Z,14.37
2019-02-24T11:18:21.248Z,14.20
2019-02-24T11:19:21.223Z,14.15
2019-02-24T11:20:21.223Z,13.64
2019-02-24T11:21:21.203Z,13.28
2019-02-24T11:22:21.196Z,13.12
2019-02-24T11:23:21.347Z,13.32
2019-02-24T11:24:21.171Z,13.51
2019-02-24T11:25:21.172Z,13.66
2019-02-24T11:26:21.146Z,13.96
2019-02-24T11:27:21.219Z,13.73
2019-02-24T11:28:21.134Z,13.63
2019-02-24T11:29:21.119Z,13.63
2019-02-24T11:30:21.105Z,13.63
2019-02-24T11:31:21.090Z,13.69
2019-02-24T11:32:21.080Z,13.70
2019-02-24T11:33:21.106Z,13.71
2019-02-24T11:34:21.090Z,13.64
2019-02-24T11:35:21.196Z,13.48
2019-02-24T11:36:21.038Z,13.33
2019-02-24T11:37:21.026Z,13.12
2019-02-24T11:38:21.009Z,13.11
2019-02-24T11:39:21.016Z,13.04
2019-02-24T11:40:20.997Z,13.25
2019-02-24T11:41:20.974Z,13.26
2019-02-24T11:42:20.983Z,13.26
2019-02-24T11:43:20.952Z,13.22
2019-02-24T11:44:21.004Z,13.38
2019-02-24T11:45:20.937Z,13.11
2019-02-24T11:46:20.928Z,12.90
2019-02-24T11:47:20.912Z,12.83
2019-02-24T11:48:20.897Z,12.79
2019-02-24T11:49:20.894Z,12.85
2019-02-24T11:50:20.875Z,12.95
2019-02-24T11:51:20.869Z,13.04
2019-02-24T11:52:20.861Z,13.19
2019-02-24T11:53:20.843Z,13.12
2019-02-24T11:54:20.853Z,13.08
2019-02-24T11:55:20.992Z,13.19
2019-02-24T11:56:20.805Z,13.17
2019-02-24T11:57:20.801Z,13.38
2019-02-24T11:58:20.807Z,13.41
2019-02-24T11:59:20.797Z,13.52
2019-02-24T12:00:20.787Z,13.45
2019-02-24T12:01:20.747Z,13.32
2019-02-24T12:02:20.738Z,13.51
2019-02-24T12:03:20.817Z,13.41
2019-02-24T12:04:20.714Z,13.41
2019-02-24T12:05:20.717Z,13.51
2019-02-24T12:06:20.690Z,13.41
2019-02-24T12:07:20.684Z,13.46
2019-02-24T12:08:20.667Z,13.70
2019-02-24T12:09:20.654Z,14.10
2019-02-24T12:10:20.664Z,13.96
2019-02-24T12:11:20.637Z,13.71
2019-02-24T12:12:20.620Z,13.49
2019-02-24T12:13:20.611Z,13.52
2019-02-24T12:14:20.615Z,13.52
2019-02-24T12:15:20.604Z,13.62
2019-02-24T12:16:20.625Z,13.63
2019-02-24T12:17:20.564Z,13.41
2019-02-24T12:18:20.558Z,13.36
2019-02-24T12:19:20.552Z,13.41
2019-02-24T12:20:20.547Z,13.33
2019-02-24T12:21:20.518Z,13.15
2019-02-24T12:22:20.505Z,13.08
2019-02-24T12:23:20.522Z,13.04
2019-02-24T12:24:20.483Z,13.05
2019-02-24T12:25:20.480Z,13.07
2019-02-24T12:26:20.493Z,13.20
2019-02-24T12:27:20.458Z,13.25
2019-02-24T12:28:20.445Z,13.20
2019-02-24T12:29:20.432Z,13.20
2019-02-24T12:30:20.475Z,13.23
2019-02-24T12:31:20.466Z,13.42
2019-02-24T12:32:20.423Z,13.49
2019-02-24T12:33:20.383Z,13.69
2019-02-24T12:34:20.382Z,13.79
2019-02-24T12:35:20.369Z,13.77
2019-02-24T12:36:20.356Z,13.95
2019-02-24T12:37:20.345Z,13.81
2019-02-24T12:38:20.337Z,14.00
2019-02-24T12:39:20.320Z,14.18
2019-02-24T12:40:20.300Z,14.32
2019-02-24T12:41:20.310Z,14.27
2019-02-24T12:42:20.290Z,14.24
2019-02-24T12:43:20.266Z,14.36
2019-02-24T12:44:20.261Z,14.57
2019-02-24T12:45:20.277Z,14.77
2019-02-24T12:46:20.252Z,14.94
2019-02-24T12:47:20.221Z,15.09
2019-02-24T12:48:20.264Z,14.84
2019-02-24T12:49:20.197Z,14.58
2019-02-24T12:50:20.194Z,14.51
2019-02-24T12:51:20.205Z,14.84
2019-02-24T12:52:20.743Z,14.80
2019-02-24T12:53:20.161Z,14.75
2019-02-24T12:54:20.201Z,14.99
2019-02-24T12:55:20.130Z,14.99
2019-02-24T12:56:20.176Z,15.17
2019-02-24T12:57:20.123Z,15.32
2019-02-24T12:58:20.121Z,15.59
2019-02-24T12:59:20.098Z,16.08
2019-02-24T13:00:20.092Z,16.42
2019-02-24T13:01:20.063Z,16.58
2019-02-24T13:02:20.064Z,16.89
2019-02-24T13:03:24.071Z,17.11
2019-02-24T13:04:20.032Z,17.23
2019-02-24T13:05:20.025Z,17.34
2019-02-24T13:06:20.024Z,17.54
2019-02-24T13:07:20.006Z,17.75
2019-02-24T13:08:19.983Z,17.77
2019-02-24T13:09:19.974Z,17.79
2019-02-24T13:10:19.964Z,17.75